Time;durP1;ratioP1;P1;durP2;ratioP2;P2;SDS_P1;SDS_P2;PMS_P1;PMS_P2;Temp;Humidity;BMP_temperature;BMP_pressure;BME280_temperature;BME280_humidity;BME280_pressure;Samples;Min_cycle;Max_cycle;Signal;HPM_P1;HPM_P2
2023/09/08 00:02:25;;;;;;;8.80;5.70;;;18.20;99.90;;;;;;4956234;28;20444;-84
2023/09/08 00:04:51;;;;;;;8.13;6.15;;;18.20;99.90;;;;;;4974433;28;20043;-84
2023/09/08 00:07:17;;;;;;;7.40;5.55;;;18.10;99.90;;;;;;4974350;28;20028;-85
2023/09/08 00:09:43;;;;;;;10.43;6.60;;;18.10;99.90;;;;;;4957494;28;20090;-84
2023/09/08 00:12:08;;;;;;;9.13;6.25;;;18.00;99.90;;;;;;4971531;28;20376;-84
2023/09/08 00:14:34;;;;;;;8.50;6.25;;;18.00;99.90;;;;;;4957269;28;20050;-84
2023/09/08 00:16:59;;;;;;;10.35;6.72;;;18.00;99.90;;;;;;4968084;28;20070;-84
2023/09/08 00:19:25;;;;;;;8.65;6.18;;;17.90;99.90;;;;;;4953525;29;20034;-83
2023/09/08 00:21:51;;;;;;;8.73;6.47;;;17.90;99.90;;;;;;4956963;28;20023;-84
2023/09/08 00:24:17;;;;;;;10.57;6.60;;;17.90;99.90;;;;;;4952583;28;20020;-84
2023/09/08 00:26:43;;;;;;;10.77;7.03;;;17.80;99.90;;;;;;4970372;28;20481;-84
2023/09/08 00:29:09;;;;;;;8.27;5.90;;;17.80;99.90;;;;;;4973024;28;20027;-84
2023/09/08 00:31:34;;;;;;;8.65;6.68;;;17.80;99.90;;;;;;4981019;28;20510;-84
2023/09/08 00:34:00;;;;;;;10.88;6.45;;;17.70;99.90;;;;;;4960287;28;20098;-84
2023/09/08 00:36:26;;;;;;;10.82;7.20;;;17.70;99.90;;;;;;4960182;28;20038;-84
2023/09/08 00:38:51;;;;;;;10.13;6.95;;;17.70;99.90;;;;;;4974108;28;20023;-84
2023/09/08 00:41:17;;;;;;;12.50;8.23;;;17.70;99.90;;;;;;4972948;28;20039;-84
2023/09/08 00:43:43;;;;;;;13.45;7.05;;;17.70;99.90;;;;;;4972362;28;20114;-84
2023/09/08 00:46:09;;;;;;;13.98;6.97;;;17.60;99.90;;;;;;4958458;28;20082;-85
2023/09/08 00:48:35;;;;;;;8.32;6.32;;;17.60;99.90;;;;;;4958037;28;21167;-84
2023/09/08 00:51:01;;;;;;;10.15;7.15;;;17.60;99.90;;;;;;4969050;28;20027;-84
2023/09/08 00:53:27;;;;;;;9.68;7.22;;;17.60;99.90;;;;;;4973555;28;20043;-85
2023/09/08 00:55:54;;;;;;;9.65;7.35;;;17.50;99.90;;;;;;4971508;28;20027;-84
2023/09/08 00:58:20;;;;;;;16.70;7.57;;;17.50;99.90;;;;;;4971832;28;20036;-84
2023/09/08 01:00:46;;;;;;;12.60;8.48;;;17.50;99.90;;;;;;4973819;28;20467;-84
2023/09/08 01:03:12;;;;;;;10.55;8.32;;;17.50;99.90;;;;;;4959227;28;20019;-84
2023/09/08 01:05:38;;;;;;;15.40;8.73;;;17.50;99.90;;;;;;4970989;28;20023;-85
2023/09/08 01:08:05;;;;;;;10.88;8.07;;;17.40;99.90;;;;;;4971919;28;21337;-84
2023/09/08 01:10:31;;;;;;;11.15;7.85;;;17.50;99.90;;;;;;4957059;29;20027;-84
2023/09/08 01:12:57;;;;;;;13.07;8.85;;;17.40;99.90;;;;;;4957341;28;20054;-85
2023/09/08 01:15:22;;;;;;;12.52;7.85;;;17.40;99.90;;;;;;4957853;28;20031;-85
2023/09/08 01:17:48;;;;;;;11.48;8.52;;;17.40;99.90;;;;;;4958724;28;20034;-83
2023/09/08 01:20:24;;;;;;;12.98;8.15;;;17.40;99.90;;;;;;4958763;28;20027;-84
2023/09/08 01:23:21;;;;;;;14.63;9.05;;;17.40;99.90;;;;;;4956964;28;21311;-84
2023/09/08 01:26:00;;;;;;;11.75;8.70;;;17.40;99.90;;;;;;4974345;28;20034;-84
2023/09/08 01:28:26;;;;;;;12.10;8.50;;;17.30;99.90;;;;;;4957673;28;20038;-84
2023/09/08 01:30:53;;;;;;;13.30;9.38;;;17.30;99.90;;;;;;4959517;28;20023;-83
2023/09/08 01:33:20;;;;;;;12.40;8.20;;;17.20;99.90;;;;;;4958443;28;20031;-85
2023/09/08 01:35:46;;;;;;;14.15;8.73;;;17.20;99.90;;;;;;4973895;28;20097;-84
2023/09/08 01:38:12;;;;;;;10.77;8.35;;;17.20;99.90;;;;;;4971583;28;20030;-84
2023/09/08 01:40:37;;;;;;;13.23;8.70;;;17.10;99.90;;;;;;4971020;28;20023;-85
2023/09/08 01:43:03;;;;;;;11.80;9.10;;;17.10;99.90;;;;;;4974289;28;20054;-84
2023/09/08 01:45:29;;;;;;;15.25;9.50;;;17.10;99.90;;;;;;4958052;28;20477;-85
2023/09/08 01:47:55;;;;;;;13.95;9.20;;;17.00;99.90;;;;;;4975043;28;20060;-84
2023/09/08 01:50:24;;;;;;;16.30;9.57;;;17.00;99.90;;;;;;4974053;28;20051;-85
2023/09/08 01:52:50;;;;;;;13.60;9.20;;;17.00;99.90;;;;;;4957918;29;20110;-86
2023/09/08 01:55:16;;;;;;;13.45;10.25;;;17.00;99.90;;;;;;4976424;28;20058;-85
2023/09/08 01:57:43;;;;;;;12.20;9.15;;;16.90;99.90;;;;;;4957737;29;20392;-84
2023/09/08 02:00:09;;;;;;;18.42;9.45;;;16.90;99.90;;;;;;4959902;28;20036;-85
2023/09/08 02:02:35;;;;;;;11.75;8.82;;;16.90;99.90;;;;;;4956703;28;20135;-86
2023/09/08 02:05:01;;;;;;;11.70;8.23;;;16.90;99.90;;;;;;4955919;28;20067;-84
2023/09/08 02:07:26;;;;;;;9.85;7.30;;;16.90;99.90;;;;;;4962962;28;20035;-84
2023/09/08 02:09:52;;;;;;;13.65;7.65;;;16.90;99.90;;;;;;4959560;28;20094;-84
2023/09/08 02:12:17;;;;;;;9.82;7.32;;;16.80;99.90;;;;;;4954415;28;20399;-84
2023/09/08 02:14:43;;;;;;;11.57;7.22;;;16.80;99.90;;;;;;4971209;28;20050;-83
2023/09/08 02:17:09;;;;;;;11.80;7.75;;;16.70;99.90;;;;;;4969225;28;20444;-84
2023/09/08 02:19:35;;;;;;;17.08;8.20;;;16.70;99.90;;;;;;4971857;28;20114;-85
2023/09/08 02:22:00;;;;;;;13.05;8.10;;;16.70;99.90;;;;;;4949172;28;20461;-84
2023/09/08 02:24:26;;;;;;;9.90;7.28;;;16.60;99.90;;;;;;4970458;28;20046;-83
2023/09/08 02:26:53;;;;;;;12.60;7.68;;;16.60;99.90;;;;;;4970765;28;20484;-84
2023/09/08 02:29:18;;;;;;;12.30;9.07;;;16.50;99.90;;;;;;4966502;28;20122;-84
2023/09/08 02:31:44;;;;;;;11.13;7.30;;;16.50;99.90;;;;;;4955152;28;20066;-84
2023/09/08 02:34:12;;;;;;;12.30;8.13;;;16.50;99.90;;;;;;4969537;28;20031;-84
2023/09/08 02:36:38;;;;;;;16.08;8.05;;;16.50;99.90;;;;;;4952278;29;20031;-84
2023/09/08 02:39:04;;;;;;;13.75;8.85;;;16.40;99.90;;;;;;4956350;28;20373;-84
2023/09/08 02:41:30;;;;;;;19.70;7.68;;;16.40;99.90;;;;;;4954533;28;20032;-84
2023/09/08 02:43:55;;;;;;;10.68;7.15;;;16.40;99.90;;;;;;4956393;28;20051;-84
2023/09/08 02:46:21;;;;;;;10.40;7.07;;;16.40;99.90;;;;;;4972349;28;20410;-85
2023/09/08 02:48:46;;;;;;;11.07;6.53;;;16.30;99.90;;;;;;4973709;28;20024;-84
2023/09/08 02:51:12;;;;;;;11.30;6.65;;;16.30;99.90;;;;;;4956823;28;20039;-86
2023/09/08 02:53:38;;;;;;;9.10;6.47;;;16.30;99.90;;;;;;4967756;28;20198;-84
2023/09/08 02:56:05;;;;;;;8.80;6.07;;;16.30;99.90;;;;;;4969046;28;20126;-86
2023/09/08 02:58:34;;;;;;;12.95;7.07;;;16.30;99.90;;;;;;4958437;28;20035;-84
2023/09/08 03:01:14;;;;;;;9.00;6.45;;;16.30;99.90;;;;;;4973056;28;20098;-86
2023/09/08 03:03:43;;;;;;;9.73;6.20;;;16.30;99.90;;;;;;4958670;28;20029;-85
2023/09/08 03:06:10;;;;;;;9.68;6.25;;;16.30;99.90;;;;;;4973146;28;20023;-86
2023/09/08 03:08:39;;;;;;;10.88;7.15;;;16.30;99.90;;;;;;4958614;29;20058;-85
2023/09/08 03:11:05;;;;;;;9.35;6.32;;;16.30;99.90;;;;;;4956669;28;20035;-86
2023/09/08 03:13:32;;;;;;;8.25;6.45;;;16.30;99.90;;;;;;4958197;29;20035;-84
2023/09/08 03:16:02;;;;;;;13.25;6.70;;;16.30;99.90;;;;;;4958914;28;20058;-86
2023/09/08 03:18:28;;;;;;;9.82;7.20;;;16.20;99.90;;;;;;4963984;28;20074;-85
2023/09/08 03:20:54;;;;;;;13.30;7.35;;;16.20;99.90;;;;;;4959356;28;20104;-85
2023/09/08 03:23:19;;;;;;;10.93;6.55;;;16.20;99.90;;;;;;4974859;28;20511;-86
2023/09/08 03:25:45;;;;;;;10.27;6.65;;;16.20;99.90;;;;;;4970951;28;20086;-86
2023/09/08 03:28:11;;;;;;;9.95;6.45;;;16.20;99.90;;;;;;4971678;28;20027;-85
2023/09/08 03:30:37;;;;;;;9.48;6.28;;;16.20;99.90;;;;;;4961083;28;20555;-86
2023/09/08 03:33:03;;;;;;;11.75;7.10;;;16.10;99.90;;;;;;4977679;28;20034;-86
2023/09/08 03:35:29;;;;;;;9.68;6.75;;;16.10;99.90;;;;;;4963322;28;20054;-86
2023/09/08 03:37:54;;;;;;;11.15;6.82;;;16.00;99.90;;;;;;4979408;28;20265;-85
2023/09/08 03:40:20;;;;;;;12.73;7.07;;;16.00;99.90;;;;;;4959513;28;20036;-86
2023/09/08 03:42:45;;;;;;;13.82;7.22;;;16.00;99.90;;;;;;4959926;28;20102;-85
2023/09/08 03:45:11;;;;;;;8.75;6.60;;;15.90;99.90;;;;;;4966517;28;20027;-86
2023/09/08 03:47:37;;;;;;;8.57;6.30;;;15.90;99.90;;;;;;4964129;28;20695;-86
2023/09/08 03:50:02;;;;;;;9.00;6.65;;;15.90;99.90;;;;;;4976044;28;20410;-84
2023/09/08 03:52:28;;;;;;;12.07;7.38;;;15.90;99.90;;;;;;4966172;28;20496;-84
2023/09/08 03:54:54;;;;;;;12.50;7.28;;;15.90;99.90;;;;;;4954247;29;20073;-84
2023/09/08 03:57:19;;;;;;;10.00;6.30;;;15.90;99.90;;;;;;4955591;28;20102;-84
2023/09/08 03:59:45;;;;;;;10.93;6.40;;;15.90;99.90;;;;;;4956392;28;20388;-84
2023/09/08 04:02:10;;;;;;;9.82;7.00;;;15.90;99.90;;;;;;4954483;28;20023;-84
2023/09/08 04:04:36;;;;;;;8.68;5.82;;;15.90;99.90;;;;;;4955925;28;20023;-84
2023/09/08 04:07:02;;;;;;;7.95;6.22;;;15.90;99.90;;;;;;4950551;28;20023;-84
2023/09/08 04:09:28;;;;;;;12.10;6.38;;;15.90;99.90;;;;;;4969611;28;20082;-85
2023/09/08 04:11:54;;;;;;;10.00;6.32;;;15.90;99.90;;;;;;4954503;28;20047;-85
2023/09/08 04:14:21;;;;;;;9.38;7.03;;;15.90;99.90;;;;;;4955623;29;20043;-84
2023/09/08 04:16:46;;;;;;;10.40;6.47;;;15.90;99.90;;;;;;4965880;28;20031;-84
2023/09/08 04:19:12;;;;;;;9.52;6.68;;;15.90;99.90;;;;;;4964909;28;20102;-86
2023/09/08 04:21:38;;;;;;;9.25;6.78;;;15.90;99.90;;;;;;4976703;28;20031;-86
2023/09/08 04:24:04;;;;;;;9.75;6.57;;;15.90;99.90;;;;;;4974236;28;20034;-86
2023/09/08 04:26:31;;;;;;;8.98;6.72;;;15.90;99.90;;;;;;4962860;28;20024;-85
2023/09/08 04:28:56;;;;;;;9.60;6.25;;;15.90;99.90;;;;;;4968875;28;20035;-84
2023/09/08 04:31:22;;;;;;;10.32;6.90;;;15.90;99.90;;;;;;4975608;28;20058;-86
2023/09/08 04:33:47;;;;;;;9.23;6.15;;;15.90;99.90;;;;;;4964032;28;20098;-86
2023/09/08 04:36:13;;;;;;;7.30;5.75;;;16.00;99.90;;;;;;4978793;28;20038;-85
2023/09/08 04:38:38;;;;;;;10.35;5.97;;;15.90;99.90;;;;;;4956833;28;20039;-86
2023/09/08 04:41:04;;;;;;;15.05;6.32;;;15.90;99.90;;;;;;4976415;28;20024;-85
2023/09/08 04:43:30;;;;;;;10.45;6.55;;;15.90;99.90;;;;;;4960192;28;20035;-83
2023/09/08 04:45:55;;;;;;;11.63;7.35;;;15.90;99.90;;;;;;4977534;28;20019;-85
2023/09/08 04:48:21;;;;;;;11.75;6.55;;;15.80;99.90;;;;;;4960614;28;20065;-86
2023/09/08 04:50:47;;;;;;;10.98;7.10;;;15.80;99.90;;;;;;4960479;28;20050;-85
2023/09/08 04:53:12;;;;;;;9.50;6.10;;;15.70;99.90;;;;;;4974227;28;20063;-86
2023/09/08 04:55:38;;;;;;;12.75;7.43;;;15.70;99.90;;;;;;4962445;28;20119;-85
2023/09/08 04:58:04;;;;;;;11.25;6.63;;;15.60;99.90;;;;;;4959734;29;20032;-85
2023/09/08 05:00:29;;;;;;;18.20;7.80;;;15.60;99.90;;;;;;4958503;28;20027;-84
2023/09/08 05:02:55;;;;;;;10.05;6.75;;;15.60;99.90;;;;;;4960767;28;20043;-86
2023/09/08 05:05:20;;;;;;;14.18;7.22;;;15.50;99.90;;;;;;4960907;28;20107;-85
2023/09/08 05:07:47;;;;;;;14.02;8.07;;;15.50;99.90;;;;;;4973413;28;20031;-86
2023/09/08 05:10:13;;;;;;;13.82;7.63;;;15.60;99.90;;;;;;4974112;28;20027;-85
2023/09/08 05:12:39;;;;;;;9.82;7.65;;;15.50;99.90;;;;;;4961044;28;20361;-84
2023/09/08 05:15:10;;;;;;;17.55;8.30;;;15.50;99.90;;;;;;4988235;28;20118;-84
2023/09/08 05:17:35;;;;;;;14.50;8.38;;;15.50;99.90;;;;;;4970041;28;20058;-85
2023/09/08 05:20:02;;;;;;;12.35;8.15;;;15.50;99.90;;;;;;4971801;28;20023;-84
2023/09/08 05:22:28;;;;;;;11.05;8.15;;;15.50;99.90;;;;;;4966693;28;20020;-83
2023/09/08 05:24:53;;;;;;;12.48;7.45;;;15.50;99.90;;;;;;4958517;28;20034;-83
2023/09/08 05:27:19;;;;;;;11.90;7.50;;;15.50;99.90;;;;;;4956959;28;20019;-84
2023/09/08 05:29:44;;;;;;;10.60;7.10;;;15.50;99.90;;;;;;4956298;28;20028;-84
2023/09/08 05:32:10;;;;;;;16.45;7.35;;;15.50;99.90;;;;;;4958267;28;20392;-85
2023/09/08 05:34:35;;;;;;;10.43;7.32;;;15.60;99.90;;;;;;4973482;28;20024;-84
2023/09/08 05:37:02;;;;;;;14.23;6.97;;;15.60;99.90;;;;;;4960054;29;20027;-84
2023/09/08 05:39:29;;;;;;;9.05;5.88;;;15.70;99.90;;;;;;4964851;28;20041;-83
2023/09/08 05:41:55;;;;;;;10.70;6.70;;;15.80;99.90;;;;;;4972563;28;20019;-84
2023/09/08 05:44:21;;;;;;;12.32;6.63;;;15.90;99.90;;;;;;4971095;28;20030;-83
2023/09/08 05:46:46;;;;;;;9.75;6.25;;;15.90;99.90;;;;;;4973067;28;20034;-83
2023/09/08 05:49:12;;;;;;;12.52;6.85;;;16.00;99.90;;;;;;4974022;28;20027;-83
2023/09/08 05:51:38;;;;;;;13.63;6.65;;;16.10;99.90;;;;;;4956919;28;20109;-83
2023/09/08 05:54:03;;;;;;;11.93;7.18;;;16.20;99.90;;;;;;4957894;28;20523;-83
2023/09/08 05:56:31;;;;;;;13.20;7.95;;;16.20;99.90;;;;;;4955583;28;20039;-83
2023/09/08 05:58:56;;;;;;;12.00;7.43;;;16.30;99.90;;;;;;4955189;28;20045;-83
2023/09/08 06:01:22;;;;;;;9.57;7.13;;;16.40;99.90;;;;;;4954689;28;20461;-83
2023/09/08 06:03:48;;;;;;;13.32;8.52;;;16.50;99.90;;;;;;4970819;28;20029;-83
2023/09/08 06:06:13;;;;;;;14.18;8.23;;;16.50;99.90;;;;;;4958494;28;20031;-83
2023/09/08 06:08:39;;;;;;;11.70;8.57;;;16.60;99.90;;;;;;4956849;28;20054;-83
2023/09/08 06:11:04;;;;;;;9.13;7.30;;;16.70;99.90;;;;;;4973580;28;20420;-83
2023/09/08 06:13:30;;;;;;;12.68;8.63;;;16.70;99.90;;;;;;4971806;28;20033;-83
2023/09/08 06:15:56;;;;;;;13.05;8.43;;;16.80;99.90;;;;;;4957870;28;20114;-83
2023/09/08 06:18:21;;;;;;;12.00;7.40;;;16.80;99.90;;;;;;4959148;28;20081;-84
2023/09/08 06:20:47;;;;;;;13.73;9.02;;;16.90;99.90;;;;;;4954720;28;20757;-85
2023/09/08 06:23:13;;;;;;;14.82;9.10;;;16.90;99.90;;;;;;4958517;28;20027;-85
2023/09/08 06:25:39;;;;;;;11.35;8.38;;;17.00;99.90;;;;;;4961050;28;20022;-85
2023/09/08 06:28:05;;;;;;;11.57;7.03;;;17.00;99.90;;;;;;4972274;28;20402;-83
2023/09/08 06:30:31;;;;;;;11.68;8.02;;;17.10;99.90;;;;;;4955624;29;20035;-84
2023/09/08 06:32:56;;;;;;;12.90;9.32;;;17.10;99.90;;;;;;4953292;29;20507;-83
2023/09/08 06:35:22;;;;;;;13.15;8.18;;;17.20;99.90;;;;;;4958906;28;20046;-83
2023/09/08 06:37:48;;;;;;;16.73;9.63;;;17.20;99.90;;;;;;4953790;28;20023;-83
2023/09/08 06:40:13;;;;;;;11.60;8.82;;;17.30;99.90;;;;;;4970775;28;20027;-83
2023/09/08 06:42:39;;;;;;;14.02;9.18;;;17.30;99.90;;;;;;4969562;28;20464;-83
2023/09/08 06:45:07;;;;;;;15.18;8.55;;;17.40;99.90;;;;;;4963294;28;20008;-83
2023/09/08 06:47:32;;;;;;;11.43;8.40;;;17.40;99.90;;;;;;4961998;29;20042;-84
2023/09/08 06:49:58;;;;;;;10.13;7.65;;;17.50;99.90;;;;;;4956447;28;20391;-83
2023/09/08 06:52:24;;;;;;;12.27;8.75;;;17.50;99.90;;;;;;4980162;28;20044;-84
2023/09/08 06:54:50;;;;;;;14.70;8.32;;;17.50;99.90;;;;;;4959080;28;20060;-86
2023/09/08 06:57:19;;;;;;;11.30;8.18;;;17.60;99.90;;;;;;4961717;28;20027;-85
2023/09/08 06:59:45;;;;;;;12.85;7.97;;;17.70;99.90;;;;;;4976902;28;20028;-84
2023/09/08 07:02:11;;;;;;;12.15;8.25;;;17.70;99.90;;;;;;4961213;28;20035;-84
2023/09/08 07:04:36;;;;;;;10.70;7.93;;;17.80;99.90;;;;;;4964705;28;20023;-83
2023/09/08 07:07:06;;;;;;;12.52;8.10;;;17.90;99.90;;;;;;4965896;28;20471;-84
2023/09/08 07:09:33;;;;;;;13.27;7.70;;;17.90;99.90;;;;;;4963727;28;20034;-85
2023/09/08 07:11:59;;;;;;;12.45;7.85;;;18.00;99.90;;;;;;4961469;28;20094;-84
2023/09/08 07:14:25;;;;;;;15.10;8.20;;;18.10;99.90;;;;;;4958470;28;20220;-84
2023/09/08 07:16:50;;;;;;;13.85;8.23;;;18.10;99.90;;;;;;4955179;29;20504;-85
2023/09/08 07:19:16;;;;;;;15.05;8.50;;;18.20;99.90;;;;;;4953661;28;20040;-84
2023/09/08 07:21:42;;;;;;;13.68;8.57;;;18.30;99.90;;;;;;4967368;28;20078;-84
2023/09/08 07:24:08;;;;;;;16.55;9.73;;;18.30;99.90;;;;;;4976391;28;20082;-84
2023/09/08 07:26:34;;;;;;;12.65;9.32;;;18.40;99.90;;;;;;4958510;28;20621;-84
2023/09/08 07:28:59;;;;;;;15.77;9.55;;;18.40;99.90;;;;;;4962736;28;20031;-84
2023/09/08 07:31:25;;;;;;;16.17;9.10;;;18.50;99.90;;;;;;4965500;28;20170;-83
2023/09/08 07:33:51;;;;;;;13.90;8.95;;;18.50;99.90;;;;;;4977761;28;20023;-84
2023/09/08 07:36:16;;;;;;;14.52;9.40;;;18.60;99.90;;;;;;4959765;28;20028;-84
2023/09/08 07:38:42;;;;;;;14.90;8.55;;;18.60;99.90;;;;;;4959635;28;20451;-84
2023/09/08 07:41:07;;;;;;;13.27;8.85;;;18.70;99.90;;;;;;4970481;28;20608;-84
2023/09/08 07:43:33;;;;;;;14.93;8.30;;;18.70;99.90;;;;;;4954494;28;20118;-84
2023/09/08 07:45:59;;;;;;;14.25;8.63;;;18.80;99.90;;;;;;4958811;28;20023;-84
2023/09/08 07:48:25;;;;;;;11.70;8.95;;;19.00;99.90;;;;;;4957160;28;20034;-84
2023/09/08 07:50:50;;;;;;;13.95;8.52;;;19.00;99.90;;;;;;4970893;28;20073;-84
2023/09/08 07:53:16;;;;;;;14.43;8.55;;;19.10;99.90;;;;;;4958986;28;20036;-86
2023/09/08 07:55:41;;;;;;;15.57;8.40;;;19.20;99.90;;;;;;4972866;28;20085;-86
2023/09/08 07:58:08;;;;;;;12.20;8.43;;;19.30;99.90;;;;;;4971650;28;20059;-85
2023/09/08 08:00:33;;;;;;;12.35;7.53;;;19.40;99.90;;;;;;4957992;28;20035;-85
2023/09/08 08:02:59;;;;;;;12.70;7.38;;;19.50;99.90;;;;;;4957449;28;20054;-86
2023/09/08 08:05:25;;;;;;;15.60;9.02;;;19.50;99.90;;;;;;4988218;28;20024;-86
2023/09/08 08:07:51;;;;;;;13.25;8.32;;;19.60;99.90;;;;;;4975560;28;20036;-84
2023/09/08 08:10:18;;;;;;;11.65;7.68;;;19.70;99.90;;;;;;4958743;28;20086;-86
2023/09/08 08:12:43;;;;;;;10.95;7.00;;;19.80;99.90;;;;;;4971140;28;20130;-86
2023/09/08 08:15:10;;;;;;;15.73;8.50;;;19.90;99.90;;;;;;4955518;28;20062;-86
2023/09/08 08:17:37;;;;;;;8.23;6.72;;;20.00;99.90;;;;;;4963099;28;20035;-86
2023/09/08 08:20:08;;;;;;;12.23;7.35;;;20.00;99.90;;;;;;4979068;28;20085;-85
2023/09/08 08:22:35;;;;;;;11.32;7.65;;;20.20;99.90;;;;;;4966001;28;20016;-85
2023/09/08 08:25:01;;;;;;;11.25;7.47;;;20.30;99.90;;;;;;4981648;28;20044;-86
2023/09/08 08:27:27;;;;;;;12.35;6.90;;;20.30;99.90;;;;;;4993499;28;20042;-86
2023/09/08 08:29:53;;;;;;;10.50;6.82;;;20.40;99.90;;;;;;4988009;28;20019;-86
2023/09/08 08:32:18;;;;;;;10.35;7.07;;;20.50;99.90;;;;;;4978013;28;20037;-85
2023/09/08 08:34:44;;;;;;;16.13;8.05;;;20.60;99.90;;;;;;4967475;28;20047;-86
2023/09/08 08:37:11;;;;;;;10.85;6.50;;;20.70;99.90;;;;;;4965757;28;20027;-85
2023/09/08 08:39:36;;;;;;;10.77;6.60;;;20.80;99.90;;;;;;4975347;28;20344;-85
2023/09/08 08:42:09;;;;;;;12.18;6.70;;;20.90;99.90;;;;;;4954163;28;20024;-84
2023/09/08 08:44:36;;;;;;;12.90;6.72;;;21.00;99.90;;;;;;4960925;28;20202;-85
2023/09/08 08:47:06;;;;;;;10.98;6.53;;;21.10;99.90;;;;;;4972221;28;20031;-84
2023/09/08 08:49:33;;;;;;;9.23;6.35;;;21.20;99.90;;;;;;4958862;29;20054;-85
2023/09/08 08:52:00;;;;;;;12.48;6.53;;;21.30;99.90;;;;;;4957788;29;20027;-84
2023/09/08 08:54:26;;;;;;;10.75;6.47;;;21.40;99.90;;;;;;4962941;28;20015;-84
2023/09/08 08:56:52;;;;;;;11.27;6.95;;;21.50;99.90;;;;;;4964495;28;20035;-85
2023/09/08 08:59:18;;;;;;;10.07;6.25;;;21.50;99.90;;;;;;4976733;28;20038;-84
2023/09/08 09:01:46;;;;;;;9.63;6.30;;;21.60;99.90;;;;;;4957998;28;20066;-84
2023/09/08 09:04:13;;;;;;;11.27;6.60;;;21.70;99.90;;;;;;4961903;29;20031;-84
2023/09/08 09:06:39;;;;;;;11.93;6.25;;;21.80;99.90;;;;;;4962208;28;20047;-85
2023/09/08 09:09:05;;;;;;;11.60;7.30;;;21.80;99.90;;;;;;4959276;28;20038;-85
2023/09/08 09:11:32;;;;;;;13.20;7.18;;;21.90;99.90;;;;;;4958149;28;20082;-84
2023/09/08 09:13:58;;;;;;;10.57;6.10;;;22.00;99.90;;;;;;4964363;29;20049;-84
2023/09/08 09:16:24;;;;;;;11.85;6.32;;;22.20;99.90;;;;;;4969504;28;20051;-86
2023/09/08 09:19:00;;;;;;;11.05;6.72;;;22.20;99.90;;;;;;4974446;28;20039;-86
2023/09/08 09:21:47;;;;;;;12.10;5.68;;;22.30;99.90;;;;;;4974932;28;20066;-86
2023/09/08 09:24:40;;;;;;;8.32;6.30;;;22.40;99.90;;;;;;4958848;29;20106;-86
2023/09/08 09:27:07;;;;;;;9.18;6.22;;;22.50;99.90;;;;;;4963821;28;20039;-85
2023/09/08 09:29:34;;;;;;;9.48;6.57;;;22.60;99.90;;;;;;4970698;28;20042;-86
2023/09/08 09:32:04;;;;;;;10.80;6.47;;;22.70;99.90;;;;;;4972766;28;20039;-85
2023/09/08 09:34:29;;;;;;;7.28;5.90;;;22.80;99.90;;;;;;4960452;28;20023;-85
2023/09/08 09:36:55;;;;;;;9.48;6.45;;;22.80;99.90;;;;;;4954955;28;20384;-85
2023/09/08 09:39:26;;;;;;;9.38;6.85;;;22.90;99.90;;;;;;4964670;29;20031;-86
2023/09/08 09:41:56;;;;;;;9.23;6.65;;;22.90;99.90;;;;;;4975030;28;20016;-86
2023/09/08 09:44:23;;;;;;;10.38;6.90;;;23.00;99.90;;;;;;4978734;28;20155;-86
2023/09/08 09:46:51;;;;;;;9.55;6.60;;;23.10;99.90;;;;;;4962622;28;20055;-85
2023/09/08 09:49:18;;;;;;;10.93;6.47;;;23.10;99.90;;;;;;4961505;28;20019;-84
2023/09/08 09:52:04;;;;;;;8.32;6.55;;;23.20;99.90;;;;;;4963532;29;20038;-85
2023/09/08 09:54:30;;;;;;;8.77;6.35;;;23.20;99.90;;;;;;4977127;28;20039;-86
2023/09/08 09:56:56;;;;;;;11.02;6.38;;;23.30;99.90;;;;;;4976979;28;20074;-85
2023/09/08 09:59:23;;;;;;;12.55;7.20;;;23.30;99.90;;;;;;4958479;28;20046;-86
2023/09/08 10:01:49;;;;;;;9.45;6.65;;;23.40;99.90;;;;;;4957738;29;20110;-85
2023/09/08 10:04:15;;;;;;;11.02;6.95;;;23.50;99.90;;;;;;4958282;28;20098;-84
2023/09/08 10:06:42;;;;;;;9.55;6.63;;;23.60;99.90;;;;;;4973581;28;20496;-84
2023/09/08 10:09:16;;;;;;;9.70;6.65;;;23.60;99.90;;;;;;4958663;28;20075;-84
2023/09/08 10:11:47;;;;;;;9.00;6.07;;;23.60;99.90;;;;;;4959278;28;20027;-84
2023/09/08 10:14:15;;;;;;;10.68;6.05;;;23.70;99.90;;;;;;4972712;28;20038;-86
2023/09/08 10:16:49;;;;;;;6.80;6.05;;;23.70;99.90;;;;;;4968653;28;20032;-84
2023/09/08 10:19:16;;;;;;;8.77;6.85;;;23.80;99.90;;;;;;4953604;28;20043;-84
2023/09/08 10:21:46;;;;;;;8.52;6.65;;;23.90;99.90;;;;;;4966532;28;20387;-85
2023/09/08 10:24:22;;;;;;;9.60;6.35;;;24.00;99.90;;;;;;4955894;28;20015;-85
2023/09/08 10:26:57;;;;;;;9.02;6.57;;;24.00;99.90;;;;;;4957926;28;20125;-84
2023/09/08 10:29:24;;;;;;;9.15;6.45;;;24.10;99.90;;;;;;4956305;29;20024;-84
2023/09/08 10:31:52;;;;;;;8.90;6.38;;;24.10;99.90;;;;;;4982192;28;20034;-86
2023/09/08 10:34:19;;;;;;;8.68;5.55;;;24.10;99.90;;;;;;4970634;28;20553;-86
2023/09/08 10:36:44;;;;;;;9.82;5.82;;;24.20;99.90;;;;;;4966287;28;20023;-84
2023/09/08 10:39:30;;;;;;;8.73;5.70;;;24.30;99.90;;;;;;4968170;28;20032;-84
2023/09/08 10:42:24;;;;;;;8.55;5.78;;;24.30;99.90;;;;;;4964394;29;20026;-84
2023/09/08 10:44:49;;;;;;;8.93;5.45;;;24.50;99.90;;;;;;4979266;28;20030;-85
2023/09/08 10:47:19;;;;;;;10.18;6.13;;;24.50;99.90;;;;;;4960551;29;20027;-85
2023/09/08 10:49:45;;;;;;;8.07;6.05;;;24.50;99.90;;;;;;4946591;29;20046;-84
2023/09/08 10:52:12;;;;;;;7.95;6.32;;;24.60;99.90;;;;;;4964761;28;20043;-84
2023/09/08 10:54:48;;;;;;;10.10;6.22;;;24.60;99.90;;;;;;4964980;28;20029;-84
2023/09/08 10:57:18;;;;;;;8.57;6.03;;;24.60;99.90;;;;;;4959627;29;20074;-84
2023/09/08 11:00:00;;;;;;;6.35;5.75;;;24.70;99.90;;;;;;4975720;28;20031;-84
2023/09/08 11:02:40;;;;;;;7.55;5.70;;;24.80;99.90;;;;;;4973678;28;20463;-84
2023/09/08 11:05:11;;;;;;;6.47;5.53;;;24.90;99.90;;;;;;4981844;28;20055;-84
2023/09/08 11:07:37;;;;;;;6.60;5.38;;;24.90;99.90;;;;;;4981754;28;20058;-84
2023/09/08 11:10:07;;;;;;;8.57;6.25;;;24.90;99.90;;;;;;4962891;29;20060;-84
2023/09/08 11:12:33;;;;;;;10.02;5.57;;;24.90;99.90;;;;;;4980651;28;20027;-84
2023/09/08 11:15:04;;;;;;;7.60;6.30;;;24.90;99.90;;;;;;4977007;28;20035;-84
2023/09/08 11:17:30;;;;;;;9.45;5.38;;;24.90;99.90;;;;;;4960933;28;20027;-84
2023/09/08 11:19:56;;;;;;;5.72;5.03;;;24.90;99.90;;;;;;4973086;28;20106;-85
2023/09/08 11:22:24;;;;;;;6.72;5.72;;;25.00;99.90;;;;;;4964792;28;20035;-84
2023/09/08 11:24:51;;;;;;;6.55;5.85;;;25.00;99.90;;;;;;4962797;28;20035;-84
2023/09/08 11:27:17;;;;;;;6.72;6.00;;;25.10;99.90;;;;;;4978942;28;20011;-84
2023/09/08 11:29:47;;;;;;;8.68;6.03;;;25.20;99.90;;;;;;4966522;28;20011;-83
2023/09/08 11:32:13;;;;;;;8.43;5.50;;;25.20;99.90;;;;;;4964773;28;20027;-83
2023/09/08 11:34:40;;;;;;;7.88;6.22;;;25.30;99.90;;;;;;4967789;28;20075;-83
2023/09/08 11:37:15;;;;;;;6.68;5.93;;;25.20;99.90;;;;;;4973263;28;20074;-84
2023/09/08 11:39:42;;;;;;;12.40;5.85;;;25.20;99.90;;;;;;4960220;28;20035;-84
2023/09/08 11:42:14;;;;;;;6.93;5.50;;;25.30;99.60;;;;;;4982210;28;20023;-84
2023/09/08 11:44:43;;;;;;;6.10;5.35;;;25.30;99.60;;;;;;4965696;28;20046;-85
2023/09/08 11:47:10;;;;;;;6.70;5.90;;;25.30;99.90;;;;;;4963909;29;20004;-84
2023/09/08 11:49:36;;;;;;;8.55;6.65;;;25.30;99.90;;;;;;4968206;28;20035;-85
2023/09/08 11:52:03;;;;;;;7.32;5.70;;;25.40;99.90;;;;;;4970145;29;20035;-84
2023/09/08 11:54:31;;;;;;;6.32;5.10;;;25.50;99.50;;;;;;4962778;29;20034;-85
2023/09/08 11:57:01;;;;;;;6.85;5.60;;;25.60;99.30;;;;;;4958915;28;20086;-85
2023/09/08 11:59:32;;;;;;;9.55;6.20;;;25.60;99.00;;;;;;4976567;28;20082;-85
2023/09/08 12:01:58;;;;;;;7.65;5.80;;;25.70;99.00;;;;;;4976759;28;20174;-86
2023/09/08 12:04:24;;;;;;;12.32;6.30;;;25.80;98.70;;;;;;4978449;28;20032;-85
2023/09/08 12:06:53;;;;;;;9.88;5.60;;;25.80;98.70;;;;;;4961958;28;20106;-85
2023/09/08 12:09:20;;;;;;;7.57;5.75;;;25.80;98.60;;;;;;4955824;28;20035;-85
2023/09/08 12:11:46;;;;;;;7.78;5.28;;;25.90;98.40;;;;;;4957620;28;20045;-86
2023/09/08 12:14:13;;;;;;;11.35;5.95;;;25.80;98.20;;;;;;4961838;28;20031;-86
2023/09/08 12:16:40;;;;;;;8.55;5.40;;;25.80;98.10;;;;;;4974764;28;20031;-83
2023/09/08 12:19:06;;;;;;;5.75;4.82;;;25.70;98.20;;;;;;4976514;28;20058;-84
2023/09/08 12:21:54;;;;;;;6.60;5.03;;;25.80;97.90;;;;;;4964516;28;20018;-84
2023/09/08 12:24:23;;;;;;;5.95;4.63;;;25.80;97.00;;;;;;4972921;28;20081;-85
2023/09/08 12:26:49;;;;;;;5.32;4.30;;;25.90;96.20;;;;;;4968414;28;20008;-83
2023/09/08 12:29:15;;;;;;;4.88;4.07;;;25.90;95.60;;;;;;4962643;28;20035;-84
2023/09/08 12:31:40;;;;;;;6.85;4.78;;;25.90;95.90;;;;;;4968566;28;20349;-86
2023/09/08 12:34:09;;;;;;;7.25;4.53;;;26.10;96.60;;;;;;4982600;28;20055;-85
2023/09/08 12:36:37;;;;;;;6.38;5.05;;;26.10;96.70;;;;;;4973447;28;20035;-85
2023/09/08 12:39:07;;;;;;;5.05;4.50;;;26.20;96.00;;;;;;4956213;29;20146;-84
2023/09/08 12:41:32;;;;;;;6.40;4.78;;;26.20;95.40;;;;;;4983607;28;20027;-86